Huvudsida
METAR-TAF:

METAR-TAF

Flygplatser :

Sankt Michels flygplats

Sankt Michel, Finland

latitud: 61-44N, longitud: 027-18E, höjd: 138 m

Aktuellt väderrapport

Denna rapport gjordes för 27 minuter sedan, klockan 18:50 UTC
Vind 4 kt från ost/nordost, varierande mellan nord/nordost och ost/sydost
Temperatur 4°C
Fuktighet 93%
Tryck 988 hPa
Sikt 10 km eller mer
Spridda moln på en höjd av 900 ft
Mulet på en höjd av 4000 ft
(lätt) skurar, okänt

METAR: EFMI 231850Z AUTO 06004KT 020V110 9999 -SHUP SCT009 OVC040 04/03 Q0988

Tid: 22:17 (19:17 UTC)


TAF: saknas

Aktuella väderrapporter och prognoser från 4000 flygplatser (METAR- och TAF-rapporter).

De tillgängliga stationerna syns som gula och röda prickar på kartan.

För musen över prickarna för att se namnen på stationerna.

Klicka sedan för att få väderrapporter och prognoser.

För att ändra kartan: Klicka på de gröna knapparna med ett svart kors på för att zooma in; den gröna knappen med ett streck på för att zooma ut; eller på de gröna pilarna för angränsande kartor.


METAR-TAF: